createdAt,value
2018-05-27T00:00:23.531Z,36.87
2018-05-27T00:02:50.978Z,25.83
2018-05-27T00:05:18.402Z,38.70
2018-05-27T00:07:45.855Z,34.20
2018-05-27T00:10:13.270Z,38.10
2018-05-27T00:12:40.725Z,34.73
2018-05-27T00:15:08.147Z,34.77
2018-05-27T00:17:35.601Z,34.17
2018-05-27T00:20:04.018Z,33.20
2018-05-27T00:22:31.475Z,34.73
2018-05-27T00:24:58.893Z,37.67
2018-05-27T00:27:26.354Z,29.57
2018-05-27T00:29:53.791Z,33.37
2018-05-27T00:32:21.253Z,35.50
2018-05-27T00:34:48.686Z,36.00
2018-05-27T00:37:16.117Z,33.40
2018-05-27T00:39:43.562Z,34.30
2018-05-27T00:42:11.012Z,42.90
2018-05-27T00:44:38.458Z,35.70
2018-05-27T00:47:05.882Z,34.57
2018-05-27T00:49:33.324Z,40.03
2018-05-27T00:52:00.753Z,38.17
2018-05-27T00:54:28.239Z,40.67
2018-05-27T00:56:55.670Z,39.33
2018-05-27T00:59:23.114Z,46.23
2018-05-27T01:01:50.537Z,32.50
2018-05-27T01:04:17.989Z,36.63
2018-05-27T01:06:45.405Z,38.20
2018-05-27T01:09:12.866Z,38.60
2018-05-27T01:11:40.290Z,38.10
2018-05-27T01:14:07.785Z,33.67
2018-05-27T01:16:35.205Z,38.90
2018-05-27T01:19:03.594Z,37.67
2018-05-27T01:21:31.049Z,38.20
2018-05-27T01:23:58.473Z,42.33
2018-05-27T01:26:25.917Z,44.63
2018-05-27T01:28:53.337Z,61.37
2018-05-27T01:31:20.794Z,42.57
2018-05-27T01:33:48.217Z,41.60
2018-05-27T01:36:15.660Z,48.60
2018-05-27T01:38:43.088Z,45.70
2018-05-27T01:41:10.533Z,49.90
2018-05-27T01:43:37.952Z,40.20
2018-05-27T01:46:05.414Z,44.87
2018-05-27T01:48:32.830Z,42.90
2018-05-27T01:51:00.249Z,40.33
2018-05-27T01:53:27.702Z,46.50
2018-05-27T01:55:56.062Z,48.20
2018-05-27T01:58:23.506Z,45.27
2018-05-27T02:00:51.249Z,40.20
2018-05-27T02:03:19.608Z,41.60
2018-05-27T02:05:47.037Z,53.40
2018-05-27T02:08:14.494Z,42.70
2018-05-27T02:10:42.819Z,47.77
2018-05-27T02:13:10.270Z,51.53
2018-05-27T02:15:37.693Z,40.13
2018-05-27T02:18:05.150Z,42.90
2018-05-27T02:20:32.570Z,37.87
2018-05-27T02:23:00.026Z,42.50
2018-05-27T02:25:27.459Z,37.23
2018-05-27T02:27:54.882Z,40.57
2018-05-27T02:30:22.330Z,39.17
2018-05-27T02:32:49.750Z,47.60
2018-05-27T02:35:17.205Z,46.50
2018-05-27T02:37:44.636Z,46.10
2018-05-27T02:40:12.086Z,50.03
2018-05-27T02:42:39.498Z,47.03
2018-05-27T02:45:06.955Z,43.33
2018-05-27T02:47:34.374Z,41.57
2018-05-27T02:50:01.846Z,41.60
2018-05-27T02:52:29.270Z,39.00
2018-05-27T02:54:56.719Z,42.17
2018-05-27T02:57:24.138Z,46.27
2018-05-27T02:59:51.593Z,41.10
2018-05-27T03:02:19.021Z,43.63
2018-05-27T03:04:46.486Z,39.73
2018-05-27T03:07:13.921Z,47.80
2018-05-27T03:09:41.370Z,39.63
2018-05-27T03:12:08.795Z,45.07
2018-05-27T03:14:36.214Z,42.17
2018-05-27T03:17:03.662Z,39.50
2018-05-27T03:19:31.081Z,43.80
2018-05-27T03:21:58.538Z,36.67
2018-05-27T03:24:26.959Z,38.83
2018-05-27T03:26:54.418Z,36.93
2018-05-27T03:29:21.841Z,41.43
2018-05-27T03:31:49.298Z,34.83
2018-05-27T03:34:16.725Z,37.53
2018-05-27T03:36:44.174Z,32.70
2018-05-27T03:39:11.598Z,36.13
2018-05-27T03:41:39.041Z,30.00
2018-05-27T03:44:06.469Z,35.30
2018-05-27T03:46:33.934Z,27.30
2018-05-27T03:49:01.361Z,30.27
2018-05-27T03:51:28.787Z,31.73
2018-05-27T03:53:56.251Z,32.23
2018-05-27T03:56:23.677Z,30.77
2018-05-27T03:58:52.088Z,25.40
2018-05-27T04:01:19.517Z,24.67
2018-05-27T04:06:55.511Z,18.50
2018-05-27T04:09:22.965Z,19.33
2018-05-27T04:11:50.378Z,19.50
2018-05-27T04:14:17.834Z,21.30
2018-05-27T04:16:45.262Z,18.63
2018-05-27T04:19:12.710Z,18.70
2018-05-27T04:21:40.133Z,16.90
2018-05-27T04:24:07.593Z,17.57
2018-05-27T04:26:35.012Z,22.80
2018-05-27T04:29:02.455Z,23.33
2018-05-27T04:31:29.875Z,26.60
2018-05-27T04:33:57.322Z,23.10
2018-05-27T04:36:26.761Z,24.60
2018-05-27T04:38:54.193Z,19.57
2018-05-27T04:41:21.624Z,18.47
2018-05-27T04:43:49.046Z,23.73
2018-05-27T04:46:16.489Z,19.97
2018-05-27T04:48:43.907Z,21.93
2018-05-27T04:51:11.369Z,17.23
2018-05-27T04:53:38.782Z,22.27
2018-05-27T04:56:06.229Z,16.50
2018-05-27T04:58:33.649Z,16.70
2018-05-27T05:01:01.113Z,19.30
2018-05-27T05:03:28.549Z,18.10
2018-05-27T05:05:56.016Z,17.40
2018-05-27T05:08:23.876Z,21.00
2018-05-27T05:10:51.313Z,20.60
2018-05-27T05:13:18.740Z,17.73
2018-05-27T05:15:46.178Z,20.90
2018-05-27T05:18:14.062Z,14.80
2018-05-27T05:20:41.481Z,15.53
2018-05-27T05:23:08.929Z,16.20
2018-05-27T05:25:37.296Z,15.73
2018-05-27T05:28:04.741Z,15.80
2018-05-27T05:30:32.178Z,19.03
2018-05-27T05:32:59.622Z,18.60
2018-05-27T05:35:27.693Z,19.43
2018-05-27T05:37:55.133Z,16.90
2018-05-27T05:40:22.560Z,18.73
2018-05-27T05:42:50.025Z,13.80
2018-05-27T05:45:17.441Z,12.30
2018-05-27T05:47:45.860Z,14.17
2018-05-27T05:50:13.289Z,13.80
2018-05-27T05:52:40.733Z,11.03
2018-05-27T05:55:08.150Z,10.93
2018-05-27T05:57:36.602Z,13.73
2018-05-27T06:00:04.126Z,11.13
2018-05-27T06:02:31.601Z,14.30
2018-05-27T06:04:59.021Z,11.97
2018-05-27T06:07:26.459Z,12.50
2018-05-27T06:09:53.907Z,11.07
2018-05-27T06:12:21.339Z,12.97
2018-05-27T06:14:48.792Z,12.10
2018-05-27T06:17:17.162Z,12.03
2018-05-27T06:19:44.608Z,10.97
2018-05-27T06:22:12.044Z,11.47
2018-05-27T06:24:39.489Z,12.37
2018-05-27T06:27:06.937Z,14.60
2018-05-27T06:29:34.392Z,14.30
2018-05-27T06:32:01.819Z,12.50
2018-05-27T06:34:29.267Z,14.87
2018-05-27T06:36:56.685Z,16.30
2018-05-27T06:39:24.126Z,15.90
2018-05-27T06:41:52.442Z,21.60
2018-05-27T06:44:19.889Z,15.77
2018-05-27T06:46:47.314Z,18.97
2018-05-27T06:49:14.773Z,18.10
2018-05-27T06:51:43.101Z,24.73
2018-05-27T06:54:11.490Z,22.13
2018-05-27T06:56:38.906Z,18.47
2018-05-27T06:59:06.378Z,21.23
2018-05-27T07:01:33.801Z,20.17
2018-05-27T07:04:01.222Z,17.57
2018-05-27T07:06:28.674Z,22.33
2018-05-27T07:08:56.115Z,22.93
2018-05-27T07:11:23.565Z,19.20
2018-05-27T07:13:50.985Z,30.00
2018-05-27T07:16:18.438Z,23.10
2018-05-27T07:18:46.845Z,22.30
2018-05-27T07:21:14.291Z,22.20
2018-05-27T07:23:41.717Z,20.43
2018-05-27T07:26:09.159Z,19.10
2018-05-27T07:28:36.578Z,18.60
2018-05-27T07:31:04.026Z,20.40
2018-05-27T07:33:31.445Z,23.80
2018-05-27T07:35:58.886Z,19.53
2018-05-27T07:38:26.305Z,21.97
2018-05-27T07:40:53.749Z,20.90
2018-05-27T07:43:21.174Z,22.60
2018-05-27T07:45:48.639Z,19.03
2018-05-27T07:48:16.066Z,19.73
2018-05-27T07:50:43.493Z,21.57
2018-05-27T07:53:10.944Z,19.80
2018-05-27T07:55:38.357Z,18.83
2018-05-27T07:58:05.797Z,23.33
2018-05-27T08:00:33.678Z,18.23
2018-05-27T08:03:01.117Z,19.00
2018-05-27T08:05:28.538Z,17.50
2018-05-27T08:07:56.774Z,17.20
2018-05-27T08:10:24.185Z,20.13
2018-05-27T08:12:51.625Z,15.53
2018-05-27T08:15:19.058Z,19.83
2018-05-27T08:17:46.506Z,14.80
2018-05-27T08:20:13.949Z,16.80
2018-05-27T08:22:41.386Z,12.77
2018-05-27T08:25:09.777Z,11.27
2018-05-27T08:27:37.174Z,10.73
2018-05-27T08:30:04.586Z,9.57
2018-05-27T08:32:32.084Z,10.53
2018-05-27T08:34:59.537Z,12.20
2018-05-27T08:37:26.929Z,11.53
2018-05-27T08:39:54.369Z,10.80
2018-05-27T08:42:21.787Z,11.03
2018-05-27T08:44:49.241Z,10.43
2018-05-27T08:47:16.653Z,12.33
2018-05-27T08:49:46.046Z,13.33
2018-05-27T08:52:13.469Z,10.77
2018-05-27T08:54:40.911Z,10.13
2018-05-27T08:57:13.162Z,10.47
2018-05-27T08:59:40.613Z,12.53
2018-05-27T09:02:08.021Z,9.20
2018-05-27T09:04:36.416Z,9.00
2018-05-27T09:07:03.844Z,7.00
2018-05-27T09:09:32.256Z,8.20
2018-05-27T09:11:59.689Z,8.23
2018-05-27T09:14:27.134Z,8.80
2018-05-27T09:16:55.536Z,8.17
2018-05-27T09:19:22.973Z,8.50
2018-05-27T09:21:50.387Z,7.37
2018-05-27T09:24:18.829Z,8.33
2018-05-27T09:26:46.260Z,8.27
2018-05-27T09:29:13.710Z,8.07
2018-05-27T09:31:44.356Z,11.37
2018-05-27T09:34:12.754Z,8.80
2018-05-27T09:36:40.187Z,9.93
2018-05-27T09:39:07.649Z,9.20
2018-05-27T09:41:35.046Z,8.40
2018-05-27T09:44:02.486Z,9.33
2018-05-27T09:46:29.946Z,11.30
2018-05-27T09:48:59.321Z,8.80
2018-05-27T09:51:26.777Z,12.40
2018-05-27T09:54:01.562Z,10.70
2018-05-27T09:56:30.925Z,13.90
2018-05-27T09:58:58.352Z,12.97
2018-05-27T10:01:25.795Z,10.67
2018-05-27T10:03:53.213Z,13.73
2018-05-27T10:06:20.658Z,14.80
2018-05-27T10:08:49.002Z,10.83
2018-05-27T10:11:18.436Z,10.20
2018-05-27T10:13:45.862Z,13.40
2018-05-27T10:16:16.531Z,12.50
2018-05-27T10:18:43.948Z,11.93
2018-05-27T10:21:11.366Z,13.73
2018-05-27T10:23:38.809Z,13.57
2018-05-27T10:26:06.371Z,14.73
2018-05-27T10:28:33.685Z,12.40
2018-05-27T10:31:01.101Z,14.70
2018-05-27T10:36:19.839Z,16.87
2018-05-27T10:38:47.294Z,17.23
2018-05-27T10:41:14.719Z,16.10
2018-05-27T10:43:42.173Z,17.43
2018-05-27T10:46:09.605Z,20.23
2018-05-27T10:48:37.053Z,20.97
2018-05-27T10:51:04.490Z,20.47
2018-05-27T10:53:31.934Z,17.80
2018-05-27T10:55:59.358Z,22.70
2018-05-27T10:58:26.826Z,21.30
2018-05-27T11:00:54.237Z,17.30
2018-05-27T11:03:21.678Z,19.57
2018-05-27T11:05:50.166Z,20.43
2018-05-27T11:08:17.570Z,17.93
2018-05-27T11:10:45.030Z,20.80
2018-05-27T11:13:12.445Z,17.40
2018-05-27T11:15:39.893Z,18.70
2018-05-27T11:18:07.319Z,22.90
2018-05-27T11:20:35.697Z,26.10
2018-05-27T11:23:05.086Z,19.73
2018-05-27T11:25:32.538Z,20.77
2018-05-27T11:27:59.953Z,20.63
2018-05-27T11:30:28.321Z,18.37
2018-05-27T11:32:56.752Z,19.93
2018-05-27T11:35:24.205Z,16.77
2018-05-27T11:37:51.630Z,20.63
2018-05-27T11:40:21.079Z,21.30
2018-05-27T11:42:48.507Z,20.63
2018-05-27T11:45:15.920Z,21.10
2018-05-27T11:47:43.377Z,29.93
2018-05-27T12:36:03.646Z,13.43
2018-05-27T12:38:31.098Z,14.37
2018-05-27T12:40:58.523Z,11.43
2018-05-27T12:43:25.975Z,11.33
2018-05-27T12:45:54.361Z,11.40
2018-05-27T12:48:21.834Z,11.67
2018-05-27T12:50:50.165Z,11.47
2018-05-27T12:53:17.611Z,11.93
2018-05-27T12:55:46.025Z,10.80
2018-05-27T12:58:14.433Z,11.27
2018-05-27T13:00:41.860Z,10.73
2018-05-27T13:03:09.316Z,11.10
2018-05-27T13:05:36.760Z,15.37
2018-05-27T13:08:04.181Z,12.90
2018-05-27T13:10:31.638Z,14.30
2018-05-27T13:12:59.059Z,15.87
2018-05-27T13:15:26.515Z,12.50
2018-05-27T13:17:54.881Z,13.70
2018-05-27T13:20:23.285Z,14.93
2018-05-27T13:22:50.720Z,12.83
2018-05-27T13:25:18.169Z,13.03
2018-05-27T13:27:45.606Z,14.50
2018-05-27T13:30:13.062Z,16.07
2018-05-27T13:32:40.518Z,14.13
2018-05-27T13:35:08.025Z,13.73
2018-05-27T13:37:35.459Z,15.13
2018-05-27T13:40:03.890Z,13.63
2018-05-27T13:42:31.317Z,13.73
2018-05-27T13:44:58.777Z,15.67
2018-05-27T13:47:26.202Z,15.03
2018-05-27T13:49:53.667Z,18.13
2018-05-27T13:52:21.117Z,14.23
2018-05-27T13:54:48.546Z,14.60
2018-05-27T13:57:16.001Z,16.07
2018-05-27T13:59:43.419Z,14.00
2018-05-27T14:02:10.866Z,13.77
2018-05-27T14:04:38.297Z,14.20
2018-05-27T14:07:05.754Z,14.43
2018-05-27T14:09:33.181Z,13.53
2018-05-27T14:12:00.638Z,11.30
2018-05-27T14:14:28.061Z,13.13
2018-05-27T14:16:55.517Z,11.73
2018-05-27T14:19:22.938Z,10.67
2018-05-27T14:21:51.346Z,11.13
2018-05-27T14:24:18.818Z,9.13
2018-05-27T14:26:46.239Z,10.30
2018-05-27T14:29:13.657Z,9.00
2018-05-27T14:31:41.071Z,10.80
2018-05-27T14:34:08.535Z,9.33
2018-05-27T14:36:35.957Z,11.50
2018-05-27T14:39:03.414Z,11.77
2018-05-27T14:41:30.840Z,12.53
2018-05-27T14:43:58.294Z,11.07
2018-05-27T14:46:25.718Z,12.40
2018-05-27T14:48:53.165Z,14.27
2018-05-27T14:51:22.537Z,13.07
2018-05-27T14:53:49.995Z,15.00
2018-05-27T14:56:17.426Z,13.57
2018-05-27T14:58:44.882Z,14.87
2018-05-27T15:01:12.310Z,14.23
2018-05-27T15:03:39.758Z,19.37
2018-05-27T15:06:07.194Z,14.53
2018-05-27T15:08:34.657Z,15.27
2018-05-27T15:11:02.102Z,14.73
2018-05-27T15:13:29.548Z,16.43
2018-05-27T15:15:57.006Z,16.57
2018-05-27T15:18:24.460Z,15.00
2018-05-27T15:20:51.906Z,16.43
2018-05-27T15:23:19.334Z,15.63
2018-05-27T15:25:47.769Z,17.90
2018-05-27T15:28:15.189Z,18.70
2018-05-27T15:30:42.658Z,16.70
2018-05-27T15:33:11.042Z,20.60
2018-05-27T15:35:39.454Z,16.37
2018-05-27T15:38:07.810Z,18.57
2018-05-27T15:40:35.269Z,14.27
2018-05-27T15:43:03.621Z,20.40
2018-05-27T15:45:31.077Z,19.30
2018-05-27T15:47:58.501Z,20.90
2018-05-27T15:50:25.961Z,18.80
2018-05-27T15:52:53.393Z,22.90
2018-05-27T15:55:20.849Z,19.10
2018-05-27T15:57:48.283Z,16.83
2018-05-27T16:00:15.729Z,20.37
2018-05-27T16:02:43.149Z,17.83
2018-05-27T16:05:10.578Z,18.77
2018-05-27T16:07:38.965Z,21.00
2018-05-27T16:10:06.414Z,18.53
2018-05-27T16:12:33.874Z,16.47
2018-05-27T16:15:01.297Z,16.03
2018-05-27T16:17:28.750Z,17.10
2018-05-27T16:19:58.071Z,17.10
2018-05-27T16:22:25.526Z,16.77
2018-05-27T16:24:53.886Z,17.57
2018-05-27T16:27:21.342Z,16.80
2018-05-27T16:29:48.768Z,17.13
2018-05-27T16:32:16.229Z,17.47
2018-05-27T16:34:43.669Z,15.40
2018-05-27T16:37:12.134Z,17.83
2018-05-27T16:39:39.552Z,15.97
2018-05-27T16:42:06.978Z,16.30
2018-05-27T16:44:34.429Z,22.13
2018-05-27T16:47:06.937Z,17.47
2018-05-27T16:49:34.378Z,16.23
2018-05-27T16:52:01.805Z,19.53
2018-05-27T16:54:29.250Z,18.50
2018-05-27T16:56:56.665Z,22.13
2018-05-27T16:59:24.121Z,20.57
2018-05-27T17:01:52.481Z,19.90
2018-05-27T17:04:20.903Z,19.90
2018-05-27T17:06:51.486Z,25.57
2018-05-27T17:09:18.960Z,22.50
2018-05-27T17:11:47.346Z,21.40
2018-05-27T17:14:15.766Z,20.03
2018-05-27T17:16:44.081Z,19.13
2018-05-27T17:19:12.511Z,19.77
2018-05-27T17:21:39.929Z,21.00
2018-05-27T17:24:07.387Z,23.47
2018-05-27T17:26:34.820Z,21.80
2018-05-27T17:29:02.313Z,22.17
2018-05-27T17:31:29.778Z,21.37
2018-05-27T17:33:57.221Z,22.23
2018-05-27T17:36:24.670Z,21.93
2018-05-27T17:38:52.107Z,20.67
2018-05-27T17:41:20.530Z,21.87
2018-05-27T17:43:49.911Z,21.07
2018-05-27T17:46:17.371Z,23.10
2018-05-27T17:48:44.822Z,27.57
2018-05-27T17:51:13.229Z,25.30
2018-05-27T17:53:40.655Z,27.50
2018-05-27T17:56:08.121Z,24.07
2018-05-27T17:58:35.550Z,31.67
2018-05-27T18:01:03.014Z,27.60
2018-05-27T18:03:32.438Z,24.50
2018-05-27T18:05:59.889Z,24.67
2018-05-27T18:08:27.329Z,31.63
2018-05-27T18:10:55.695Z,24.27
2018-05-27T18:13:23.123Z,24.03
2018-05-27T18:15:50.831Z,29.47
2018-05-27T18:18:22.794Z,25.87
2018-05-27T18:20:51.217Z,29.13
2018-05-27T18:23:20.587Z,28.60
2018-05-27T18:25:48.014Z,29.17
2018-05-27T18:28:15.480Z,28.53
2018-05-27T18:30:42.917Z,29.00
2018-05-27T18:33:10.369Z,25.73
2018-05-27T18:35:37.798Z,24.27
2018-05-27T18:38:05.252Z,34.50
2018-05-27T18:40:32.682Z,28.20
2018-05-27T18:43:01.051Z,30.07
2018-05-27T18:45:28.487Z,36.10
2018-05-27T18:47:56.835Z,35.93
2018-05-27T18:50:24.250Z,31.90
2018-05-27T18:52:51.706Z,32.80
2018-05-27T18:55:22.821Z,33.47
2018-05-27T18:57:50.282Z,34.83
2018-05-27T19:00:17.721Z,34.33
2018-05-27T19:02:45.169Z,33.33
2018-05-27T19:05:12.591Z,35.53
2018-05-27T19:07:40.045Z,34.27
2018-05-27T19:10:07.466Z,29.67
2018-05-27T19:12:34.897Z,36.50
2018-05-27T19:15:02.374Z,38.93
2018-05-27T19:17:29.829Z,42.53
2018-05-27T19:22:55.285Z,41.67
2018-05-27T19:25:27.197Z,42.70
2018-05-27T19:27:54.634Z,50.63
2018-05-27T19:30:22.096Z,47.47
2018-05-27T19:32:49.523Z,49.53
2018-05-27T19:35:17.878Z,54.03
2018-05-27T19:37:46.966Z,47.70
2018-05-27T19:40:14.421Z,53.70
2018-05-27T19:42:41.852Z,54.47
2018-05-27T19:45:09.319Z,52.17
2018-05-27T19:47:36.741Z,49.93
2018-05-27T19:50:04.185Z,48.03
2018-05-27T19:52:31.611Z,50.17
2018-05-27T19:55:02.881Z,56.53
2018-05-27T19:57:31.311Z,49.67
2018-05-27T19:59:58.750Z,53.77
2018-05-27T20:02:26.173Z,52.30
2018-05-27T20:04:53.634Z,56.33
2018-05-27T20:07:21.061Z,49.90
2018-05-27T20:09:48.534Z,53.83
2018-05-27T20:12:15.955Z,52.77
2018-05-27T20:14:43.382Z,46.10
2018-05-27T20:17:10.881Z,50.00
2018-05-27T20:19:38.298Z,51.10
2018-05-27T20:22:06.770Z,49.37
2018-05-27T20:24:34.190Z,51.87
2018-05-27T20:27:01.672Z,49.10
2018-05-27T20:29:29.130Z,50.60
2018-05-27T20:31:56.574Z,45.40
2018-05-27T20:34:24.006Z,50.47
2018-05-27T20:36:51.453Z,54.60
2018-05-27T20:39:19.854Z,55.33
2018-05-27T20:41:47.309Z,45.07
2018-05-27T20:44:18.459Z,46.53
2018-05-27T20:46:45.910Z,52.33
2018-05-27T20:49:13.350Z,49.50
2018-05-27T20:51:40.809Z,50.07
2018-05-27T20:54:08.239Z,46.80
2018-05-27T20:56:36.743Z,48.60
2018-05-27T20:59:04.132Z,46.47
2018-05-27T21:01:31.558Z,48.27
2018-05-27T21:03:59.066Z,47.33
2018-05-27T21:06:26.457Z,46.63
2018-05-27T21:08:57.358Z,45.90
2018-05-27T21:11:26.690Z,46.77
2018-05-27T21:13:54.138Z,44.30
2018-05-27T21:16:21.586Z,47.17
2018-05-27T21:18:49.079Z,46.50
2018-05-27T21:21:16.506Z,49.13
2018-05-27T21:23:43.961Z,47.67
2018-05-27T21:26:11.399Z,46.67
2018-05-27T21:28:38.919Z,51.97
2018-05-27T21:31:06.343Z,48.03
2018-05-27T21:33:35.403Z,51.77
2018-05-27T21:36:07.649Z,48.90
2018-05-27T21:38:35.151Z,52.97
2018-05-27T21:41:02.587Z,46.80
2018-05-27T21:43:30.955Z,44.10
2018-05-27T21:45:58.406Z,49.80
2018-05-27T21:48:26.726Z,51.97
2018-05-27T21:50:55.177Z,46.80
2018-05-27T21:53:22.604Z,42.67
2018-05-27T21:55:50.054Z,42.57
2018-05-27T21:58:17.482Z,46.13
2018-05-27T22:00:44.929Z,47.30
2018-05-27T22:03:12.356Z,44.40
2018-05-27T22:05:39.814Z,42.30
2018-05-27T22:08:07.287Z,49.63
2018-05-27T22:10:34.709Z,46.30
2018-05-27T22:13:02.161Z,46.83
2018-05-27T22:15:29.613Z,47.93
2018-05-27T22:17:57.046Z,41.57
2018-05-27T22:20:24.471Z,47.00
2018-05-27T22:22:51.937Z,46.50
2018-05-27T22:25:19.365Z,46.07
2018-05-27T22:27:46.854Z,44.50
2018-05-27T22:30:14.243Z,45.30
2018-05-27T22:32:41.691Z,43.33
2018-05-27T22:35:09.124Z,45.60
2018-05-27T22:37:36.581Z,48.03
2018-05-27T22:40:04.005Z,44.33
2018-05-27T22:42:31.464Z,40.97
2018-05-27T22:44:58.892Z,40.60
2018-05-27T22:47:26.363Z,43.80
2018-05-27T22:49:53.795Z,40.13
2018-05-27T22:52:21.247Z,40.07
2018-05-27T22:54:48.697Z,43.33
2018-05-27T22:57:16.121Z,41.77
2018-05-27T22:59:43.578Z,38.57
2018-05-27T23:02:10.998Z,40.80
2018-05-27T23:04:38.459Z,41.70
2018-05-27T23:07:05.914Z,41.30
2018-05-27T23:09:33.369Z,39.30
2018-05-27T23:12:00.810Z,41.10
2018-05-27T23:14:28.273Z,38.50
2018-05-27T23:16:55.686Z,39.97
2018-05-27T23:19:23.159Z,41.03
2018-05-27T23:21:50.582Z,36.93
2018-05-27T23:24:18.937Z,41.40
2018-05-27T23:26:47.274Z,36.53
2018-05-27T23:29:14.729Z,36.57
2018-05-27T23:31:42.164Z,35.80
2018-05-27T23:34:09.589Z,35.93
2018-05-27T23:36:37.050Z,39.60
2018-05-27T23:39:04.488Z,42.70
2018-05-27T23:41:33.829Z,34.70
2018-05-27T23:44:01.260Z,38.73
2018-05-27T23:46:28.719Z,37.63
2018-05-27T23:48:56.134Z,38.77
2018-05-27T23:51:23.585Z,37.10
2018-05-27T23:53:51.014Z,33.30
2018-05-27T23:56:18.469Z,44.37
2018-05-27T23:58:45.901Z,39.47
